KINS

Details ICAO KINS (INS)
Name CREECH AFB
Region United States
Timezone America/Los_Angeles (UTC-8.0)
Plans Departing 12
Arriving 14
Stats Elevation 3,133 ft / 955 m (AMSL)
Location 36.586675° -115.676579°
Runways 2
Magnetic Variation 11.890° E
Sunrise 2017-11-18 14:25:17 UTC / 2017-11-18 06:25:17 Local
Sunset 2017-11-19 00:33:33 UTC / 2017-11-18 16:33:33 Local
Advertisement - Login to hide

Runways

ID Width Length Bearing (true) Bearing (mag) Surface Threshold Offset Overrun Length
08 150 ft / 46 m 8,984 ft / 2,738 m 92.33° 80.44° Asphalt 0 ft / 0 m 1,000 ft / 305 m
13 100 ft / 30 m 4,896 ft / 1,492 m 145.01° 133.12° Asphalt 468 ft / 143 m 450 ft / 137 m
26 150 ft / 46 m 8,984 ft / 2,738 m 272.35° 260.46° Asphalt 0 ft / 0 m 1,000 ft / 305 m
31 100 ft / 30 m 4,896 ft / 1,492 m 325.02° 313.13° Asphalt 0 ft / 0 m 300 ft / 91 m

Map

Weather


0- 5 10 15 20 25 30 35+ Temperature / ° C

Clouds and Precipitation
Forecast for 2017-11-18 18:00 UTC. Updated 2 hours ago

Ground ~20,000 ft ~40,000 ft Winds

METAR

KINS 181858Z AUTO 00000KT 10SM CLR 11/M13 A3036 RMK AO2 SLP267 T01061128 $

TAF

TAF TAF KINS 181500Z 1815/1921 VRB06KT 9999 SKC QNH3020INS TEMPO 1817/1821 01010G15KT TX15/1821Z TN00/1815Z

Frequencies

Recorded 121.12 MHz ASOS
Tower 118.30 MHz TWR
Ground 118.30 MHz GND
Warning: Do not use this data for real-world aviation or navigation. No guarantee of current accuracy is given.